sensor_id;sensor_type;location;lat;lon;timestamp;temperature;humidity
21807;DHT22;11065;50.786;7.840;2024-03-02T00:01:50;10.60;47.70
21807;DHT22;11065;50.786;7.840;2024-03-02T00:04:18;10.60;47.60
21807;DHT22;11065;50.786;7.840;2024-03-02T00:06:47;10.60;47.60
21807;DHT22;11065;50.786;7.840;2024-03-02T00:09:15;10.60;47.70
21807;DHT22;11065;50.786;7.840;2024-03-02T00:11:43;10.60;47.60
21807;DHT22;11065;50.786;7.840;2024-03-02T00:14:11;10.50;47.50
21807;DHT22;11065;50.786;7.840;2024-03-02T00:16:39;10.50;47.60
21807;DHT22;11065;50.786;7.840;2024-03-02T00:19:09;10.50;47.50
21807;DHT22;11065;50.786;7.840;2024-03-02T00:21:37;10.50;47.60
21807;DHT22;11065;50.786;7.840;2024-03-02T00:24:18;10.50;47.60
21807;DHT22;11065;50.786;7.840;2024-03-02T00:26:48;10.60;47.80
21807;DHT22;11065;50.786;7.840;2024-03-02T00:29:17;10.60;47.60
21807;DHT22;11065;50.786;7.840;2024-03-02T00:31:45;10.60;47.70
21807;DHT22;11065;50.786;7.840;2024-03-02T00:34:15;10.60;47.70
21807;DHT22;11065;50.786;7.840;2024-03-02T00:36:45;10.60;47.70
21807;DHT22;11065;50.786;7.840;2024-03-02T00:39:16;10.70;47.70
21807;DHT22;11065;50.786;7.840;2024-03-02T00:41:45;10.70;47.70
21807;DHT22;11065;50.786;7.840;2024-03-02T00:44:13;10.70;47.70
21807;DHT22;11065;50.786;7.840;2024-03-02T00:46:43;10.80;47.70
21807;DHT22;11065;50.786;7.840;2024-03-02T00:49:13;10.80;47.70
21807;DHT22;11065;50.786;7.840;2024-03-02T00:51:47;10.80;47.60
21807;DHT22;11065;50.786;7.840;2024-03-02T00:54:19;10.90;47.60
21807;DHT22;11065;50.786;7.840;2024-03-02T00:56:48;10.90;47.70
21807;DHT22;11065;50.786;7.840;2024-03-02T00:59:17;10.90;47.60
21807;DHT22;11065;50.786;7.840;2024-03-02T01:01:44;10.90;47.60
21807;DHT22;11065;50.786;7.840;2024-03-02T01:04:13;11.00;47.60
21807;DHT22;11065;50.786;7.840;2024-03-02T01:06:42;11.00;47.60
21807;DHT22;11065;50.786;7.840;2024-03-02T01:09:10;11.00;47.60
21807;DHT22;11065;50.786;7.840;2024-03-02T01:11:41;11.10;47.60
21807;DHT22;11065;50.786;7.840;2024-03-02T01:14:09;11.10;47.60
21807;DHT22;11065;50.786;7.840;2024-03-02T01:16:37;11.10;47.50
21807;DHT22;11065;50.786;7.840;2024-03-02T01:19:05;11.10;47.50
21807;DHT22;11065;50.786;7.840;2024-03-02T01:21:33;11.10;47.50
21807;DHT22;11065;50.786;7.840;2024-03-02T01:24:01;11.20;47.60
21807;DHT22;11065;50.786;7.840;2024-03-02T01:26:29;11.20;47.60
21807;DHT22;11065;50.786;7.840;2024-03-02T01:28:58;11.20;47.60
21807;DHT22;11065;50.786;7.840;2024-03-02T01:31:26;11.20;48.00
21807;DHT22;11065;50.786;7.840;2024-03-02T01:33:54;11.30;47.60
21807;DHT22;11065;50.786;7.840;2024-03-02T01:36:22;11.30;47.60
21807;DHT22;11065;50.786;7.840;2024-03-02T01:38:50;11.30;47.50
21807;DHT22;11065;50.786;7.840;2024-03-02T01:41:18;11.30;47.50
21807;DHT22;11065;50.786;7.840;2024-03-02T01:43:46;11.40;47.60
21807;DHT22;11065;50.786;7.840;2024-03-02T01:46:15;11.30;47.60
21807;DHT22;11065;50.786;7.840;2024-03-02T01:48:43;11.30;47.50
21807;DHT22;11065;50.786;7.840;2024-03-02T01:51:11;11.40;47.50
21807;DHT22;11065;50.786;7.840;2024-03-02T01:53:39;11.40;47.50
21807;DHT22;11065;50.786;7.840;2024-03-02T01:56:07;11.40;47.50
21807;DHT22;11065;50.786;7.840;2024-03-02T01:58:35;11.40;47.40
21807;DHT22;11065;50.786;7.840;2024-03-02T02:01:03;11.40;47.40
21807;DHT22;11065;50.786;7.840;2024-03-02T02:03:33;11.40;47.40
21807;DHT22;11065;50.786;7.840;2024-03-02T02:06:01;11.40;47.40
21807;DHT22;11065;50.786;7.840;2024-03-02T02:08:29;11.40;47.30
21807;DHT22;11065;50.786;7.840;2024-03-02T02:10:57;11.40;47.30
21807;DHT22;11065;50.786;7.840;2024-03-02T02:13:25;11.40;47.30
21807;DHT22;11065;50.786;7.840;2024-03-02T02:15:53;11.40;47.30
21807;DHT22;11065;50.786;7.840;2024-03-02T02:18:21;11.40;47.30
21807;DHT22;11065;50.786;7.840;2024-03-02T02:20:51;11.50;47.30
21807;DHT22;11065;50.786;7.840;2024-03-02T02:23:20;11.40;47.30
21807;DHT22;11065;50.786;7.840;2024-03-02T02:25:48;11.40;47.30
21807;DHT22;11065;50.786;7.840;2024-03-02T02:28:16;11.40;47.30
21807;DHT22;11065;50.786;7.840;2024-03-02T02:30:44;11.50;47.30
21807;DHT22;11065;50.786;7.840;2024-03-02T02:33:12;11.30;47.10
21807;DHT22;11065;50.786;7.840;2024-03-02T02:35:40;11.40;47.20
21807;DHT22;11065;50.786;7.840;2024-03-02T02:38:08;11.40;47.20
21807;DHT22;11065;50.786;7.840;2024-03-02T02:40:37;11.30;47.10
21807;DHT22;11065;50.786;7.840;2024-03-02T02:43:05;11.30;47.10
21807;DHT22;11065;50.786;7.840;2024-03-02T02:45:34;11.20;47.10
21807;DHT22;11065;50.786;7.840;2024-03-02T02:48:02;11.20;47.10
21807;DHT22;11065;50.786;7.840;2024-03-02T02:50:30;11.20;47.20
21807;DHT22;11065;50.786;7.840;2024-03-02T02:52:58;11.10;47.20
21807;DHT22;11065;50.786;7.840;2024-03-02T02:55:26;11.10;47.20
21807;DHT22;11065;50.786;7.840;2024-03-02T02:57:55;11.00;47.20
21807;DHT22;11065;50.786;7.840;2024-03-02T03:00:24;11.00;47.20
21807;DHT22;11065;50.786;7.840;2024-03-02T03:02:52;11.00;47.20
21807;DHT22;11065;50.786;7.840;2024-03-02T03:05:20;10.90;47.20
21807;DHT22;11065;50.786;7.840;2024-03-02T03:07:48;10.90;47.30
21807;DHT22;11065;50.786;7.840;2024-03-02T03:10:17;10.90;47.30
21807;DHT22;11065;50.786;7.840;2024-03-02T03:12:45;10.80;47.30
21807;DHT22;11065;50.786;7.840;2024-03-02T03:15:15;10.80;47.40
21807;DHT22;11065;50.786;7.840;2024-03-02T03:17:44;10.70;47.40
21807;DHT22;11065;50.786;7.840;2024-03-02T03:20:13;10.70;47.40
21807;DHT22;11065;50.786;7.840;2024-03-02T03:22:42;10.70;47.50
21807;DHT22;11065;50.786;7.840;2024-03-02T03:25:10;10.60;47.50
21807;DHT22;11065;50.786;7.840;2024-03-02T03:27:38;10.60;47.50
21807;DHT22;11065;50.786;7.840;2024-03-02T03:30:08;10.60;47.50
21807;DHT22;11065;50.786;7.840;2024-03-02T03:32:38;10.60;47.60
21807;DHT22;11065;50.786;7.840;2024-03-02T03:35:06;10.50;47.50
21807;DHT22;11065;50.786;7.840;2024-03-02T03:37:35;10.50;47.60
21807;DHT22;11065;50.786;7.840;2024-03-02T03:40:04;10.50;47.60
21807;DHT22;11065;50.786;7.840;2024-03-02T03:42:36;10.50;47.60
21807;DHT22;11065;50.786;7.840;2024-03-02T03:45:05;10.50;47.60
21807;DHT22;11065;50.786;7.840;2024-03-02T03:47:33;10.40;47.60
21807;DHT22;11065;50.786;7.840;2024-03-02T03:50:03;10.40;47.70
21807;DHT22;11065;50.786;7.840;2024-03-02T03:52:33;10.40;47.70
21807;DHT22;11065;50.786;7.840;2024-03-02T03:55:01;10.30;47.70
21807;DHT22;11065;50.786;7.840;2024-03-02T03:57:29;10.30;47.70
21807;DHT22;11065;50.786;7.840;2024-03-02T03:59:58;10.30;47.80
21807;DHT22;11065;50.786;7.840;2024-03-02T04:02:27;10.30;47.80
21807;DHT22;11065;50.786;7.840;2024-03-02T04:04:54;10.30;48.00
21807;DHT22;11065;50.786;7.840;2024-03-02T04:07:24;10.20;47.90
21807;DHT22;11065;50.786;7.840;2024-03-02T04:09:51;10.20;47.90
21807;DHT22;11065;50.786;7.840;2024-03-02T04:12:19;10.20;47.80
21807;DHT22;11065;50.786;7.840;2024-03-02T04:14:48;10.20;47.90
21807;DHT22;11065;50.786;7.840;2024-03-02T04:17:16;10.10;47.90
21807;DHT22;11065;50.786;7.840;2024-03-02T04:19:44;10.10;47.90
21807;DHT22;11065;50.786;7.840;2024-03-02T04:22:12;10.10;48.40
21807;DHT22;11065;50.786;7.840;2024-03-02T04:24:52;10.00;47.90
21807;DHT22;11065;50.786;7.840;2024-03-02T04:27:19;10.00;47.90
21807;DHT22;11065;50.786;7.840;2024-03-02T04:29:47;10.00;48.00
21807;DHT22;11065;50.786;7.840;2024-03-02T04:32:15;9.90;48.00
21807;DHT22;11065;50.786;7.840;2024-03-02T04:34:45;9.90;48.00
21807;DHT22;11065;50.786;7.840;2024-03-02T04:37:13;9.90;48.10
21807;DHT22;11065;50.786;7.840;2024-03-02T04:39:41;9.90;48.10
21807;DHT22;11065;50.786;7.840;2024-03-02T04:42:11;9.80;48.10
21807;DHT22;11065;50.786;7.840;2024-03-02T04:44:38;9.80;48.20
21807;DHT22;11065;50.786;7.840;2024-03-02T04:47:06;9.80;48.20
21807;DHT22;11065;50.786;7.840;2024-03-02T04:49:34;9.80;48.20
21807;DHT22;11065;50.786;7.840;2024-03-02T04:52:03;9.70;48.70
21807;DHT22;11065;50.786;7.840;2024-03-02T04:54:31;9.70;48.20
21807;DHT22;11065;50.786;7.840;2024-03-02T04:56:59;9.70;48.30
21807;DHT22;11065;50.786;7.840;2024-03-02T04:59:29;9.60;48.30
21807;DHT22;11065;50.786;7.840;2024-03-02T05:01:57;9.60;48.30
21807;DHT22;11065;50.786;7.840;2024-03-02T05:04:25;9.60;48.40
21807;DHT22;11065;50.786;7.840;2024-03-02T05:06:53;9.60;48.40
21807;DHT22;11065;50.786;7.840;2024-03-02T05:09:23;9.50;48.30
21807;DHT22;11065;50.786;7.840;2024-03-02T05:11:51;9.50;48.40
21807;DHT22;11065;50.786;7.840;2024-03-02T05:14:57;9.50;48.40
21807;DHT22;11065;50.786;7.840;2024-03-02T05:17:25;9.50;48.40
21807;DHT22;11065;50.786;7.840;2024-03-02T05:19:53;9.50;48.50
21807;DHT22;11065;50.786;7.840;2024-03-02T05:22:21;9.40;48.50
21807;DHT22;11065;50.786;7.840;2024-03-02T05:24:49;9.40;48.50
21807;DHT22;11065;50.786;7.840;2024-03-02T05:27:17;9.40;48.60
21807;DHT22;11065;50.786;7.840;2024-03-02T05:29:45;9.30;48.60
21807;DHT22;11065;50.786;7.840;2024-03-02T05:32:15;9.30;48.60
21807;DHT22;11065;50.786;7.840;2024-03-02T05:34:42;9.30;48.70
21807;DHT22;11065;50.786;7.840;2024-03-02T05:37:10;9.30;48.80
21807;DHT22;11065;50.786;7.840;2024-03-02T05:39:38;9.30;48.80
21807;DHT22;11065;50.786;7.840;2024-03-02T05:42:06;9.30;48.90
21807;DHT22;11065;50.786;7.840;2024-03-02T05:44:35;9.30;49.00
21807;DHT22;11065;50.786;7.840;2024-03-02T05:47:03;9.30;49.00
21807;DHT22;11065;50.786;7.840;2024-03-02T05:49:33;9.30;49.00
21807;DHT22;11065;50.786;7.840;2024-03-02T05:52:00;9.30;49.00
21807;DHT22;11065;50.786;7.840;2024-03-02T05:54:29;9.30;49.10
21807;DHT22;11065;50.786;7.840;2024-03-02T05:56:57;9.30;49.10
21807;DHT22;11065;50.786;7.840;2024-03-02T05:59:43;9.30;49.00
21807;DHT22;11065;50.786;7.840;2024-03-02T06:02:11;9.20;48.90
21807;DHT22;11065;50.786;7.840;2024-03-02T06:04:40;9.20;48.90
21807;DHT22;11065;50.786;7.840;2024-03-02T06:07:08;9.20;48.90
21807;DHT22;11065;50.786;7.840;2024-03-02T06:09:36;9.10;48.90
21807;DHT22;11065;50.786;7.840;2024-03-02T06:12:05;9.10;48.90
21807;DHT22;11065;50.786;7.840;2024-03-02T06:14:32;9.00;48.90
21807;DHT22;11065;50.786;7.840;2024-03-02T06:17:00;9.00;48.90
21807;DHT22;11065;50.786;7.840;2024-03-02T06:19:28;8.90;48.90
21807;DHT22;11065;50.786;7.840;2024-03-02T06:21:58;8.90;49.00
21807;DHT22;11065;50.786;7.840;2024-03-02T06:24:26;8.90;49.10
21807;DHT22;11065;50.786;7.840;2024-03-02T06:26:54;8.80;49.10
21807;DHT22;11065;50.786;7.840;2024-03-02T06:29:22;8.80;49.20
21807;DHT22;11065;50.786;7.840;2024-03-02T06:31:50;8.80;49.30
21807;DHT22;11065;50.786;7.840;2024-03-02T06:34:20;8.80;49.40
21807;DHT22;11065;50.786;7.840;2024-03-02T06:36:49;8.80;49.40
21807;DHT22;11065;50.786;7.840;2024-03-02T06:39:18;8.80;49.40
21807;DHT22;11065;50.786;7.840;2024-03-02T06:41:46;8.70;49.50
21807;DHT22;11065;50.786;7.840;2024-03-02T06:44:14;8.80;49.60
21807;DHT22;11065;50.786;7.840;2024-03-02T06:46:42;8.80;49.70
21807;DHT22;11065;50.786;7.840;2024-03-02T06:49:10;8.80;49.80
21807;DHT22;11065;50.786;7.840;2024-03-02T06:51:38;8.80;49.80
21807;DHT22;11065;50.786;7.840;2024-03-02T06:54:06;8.80;49.90
21807;DHT22;11065;50.786;7.840;2024-03-02T06:56:35;8.90;50.00
21807;DHT22;11065;50.786;7.840;2024-03-02T06:59:05;9.00;50.10
21807;DHT22;11065;50.786;7.840;2024-03-02T07:01:34;9.00;50.10
21807;DHT22;11065;50.786;7.840;2024-03-02T07:04:02;9.10;50.10
21807;DHT22;11065;50.786;7.840;2024-03-02T07:06:30;9.20;50.20
21807;DHT22;11065;50.786;7.840;2024-03-02T07:08:58;9.40;50.20
21807;DHT22;11065;50.786;7.840;2024-03-02T07:11:26;9.40;50.20
21807;DHT22;11065;50.786;7.840;2024-03-02T07:13:55;9.50;50.10
21807;DHT22;11065;50.786;7.840;2024-03-02T07:16:23;9.60;50.10
21807;DHT22;11065;50.786;7.840;2024-03-02T07:18:55;9.60;50.00
21807;DHT22;11065;50.786;7.840;2024-03-02T07:21:23;9.70;50.00
21807;DHT22;11065;50.786;7.840;2024-03-02T07:23:51;9.80;50.00
21807;DHT22;11065;50.786;7.840;2024-03-02T07:26:19;9.90;50.00
21807;DHT22;11065;50.786;7.840;2024-03-02T07:28:50;10.00;50.00
21807;DHT22;11065;50.786;7.840;2024-03-02T07:31:20;10.10;49.90
21807;DHT22;11065;50.786;7.840;2024-03-02T07:33:48;10.10;49.80
21807;DHT22;11065;50.786;7.840;2024-03-02T07:36:16;10.20;49.70
21807;DHT22;11065;50.786;7.840;2024-03-02T07:38:45;10.30;49.60
21807;DHT22;11065;50.786;7.840;2024-03-02T07:41:17;10.30;49.60
21807;DHT22;11065;50.786;7.840;2024-03-02T07:43:44;10.40;49.50
21807;DHT22;11065;50.786;7.840;2024-03-02T07:46:12;10.40;49.50
21807;DHT22;11065;50.786;7.840;2024-03-02T07:48:42;10.50;49.60
21807;DHT22;11065;50.786;7.840;2024-03-02T07:51:10;10.50;49.40
21807;DHT22;11065;50.786;7.840;2024-03-02T07:53:39;10.60;49.40
21807;DHT22;11065;50.786;7.840;2024-03-02T07:56:07;10.60;49.30
21807;DHT22;11065;50.786;7.840;2024-03-02T07:58:35;10.70;49.30
21807;DHT22;11065;50.786;7.840;2024-03-02T08:01:03;10.70;49.40
21807;DHT22;11065;50.786;7.840;2024-03-02T08:03:31;10.70;49.40
21807;DHT22;11065;50.786;7.840;2024-03-02T08:06:02;10.80;49.40
21807;DHT22;11065;50.786;7.840;2024-03-02T08:08:30;10.80;49.40
21807;DHT22;11065;50.786;7.840;2024-03-02T08:10:58;10.80;49.40
21807;DHT22;11065;50.786;7.840;2024-03-02T08:13:27;10.90;49.90
21807;DHT22;11065;50.786;7.840;2024-03-02T08:15:55;10.90;49.40
21807;DHT22;11065;50.786;7.840;2024-03-02T08:18:24;11.00;49.20
21807;DHT22;11065;50.786;7.840;2024-03-02T08:20:53;11.10;49.20
21807;DHT22;11065;50.786;7.840;2024-03-02T08:23:22;11.10;49.20
21807;DHT22;11065;50.786;7.840;2024-03-02T08:25:50;11.20;49.20
21807;DHT22;11065;50.786;7.840;2024-03-02T08:28:18;11.20;49.20
21807;DHT22;11065;50.786;7.840;2024-03-02T08:30:46;11.30;49.10
21807;DHT22;11065;50.786;7.840;2024-03-02T08:33:14;11.30;49.10
21807;DHT22;11065;50.786;7.840;2024-03-02T08:35:43;11.40;49.20
21807;DHT22;11065;50.786;7.840;2024-03-02T08:38:11;11.50;49.20
21807;DHT22;11065;50.786;7.840;2024-03-02T08:40:40;11.50;49.10
21807;DHT22;11065;50.786;7.840;2024-03-02T08:43:09;11.60;49.10
21807;DHT22;11065;50.786;7.840;2024-03-02T08:45:37;11.70;49.10
21807;DHT22;11065;50.786;7.840;2024-03-02T08:48:07;11.80;49.20
21807;DHT22;11065;50.786;7.840;2024-03-02T08:50:36;11.90;49.30
21807;DHT22;11065;50.786;7.840;2024-03-02T08:53:04;12.00;49.50
21807;DHT22;11065;50.786;7.840;2024-03-02T08:55:32;12.30;50.20
21807;DHT22;11065;50.786;7.840;2024-03-02T08:58:02;12.80;51.30
21807;DHT22;11065;50.786;7.840;2024-03-02T09:00:30;13.60;52.30
21807;DHT22;11065;50.786;7.840;2024-03-02T09:02:58;14.50;53.20
21807;DHT22;11065;50.786;7.840;2024-03-02T09:05:26;15.60;53.70
21807;DHT22;11065;50.786;7.840;2024-03-02T09:07:54;16.80;53.40
21807;DHT22;11065;50.786;7.840;2024-03-02T09:10:22;17.90;52.80
21807;DHT22;11065;50.786;7.840;2024-03-02T09:12:54;18.90;51.40
21807;DHT22;11065;50.786;7.840;2024-03-02T09:15:23;19.80;50.50
21807;DHT22;11065;50.786;7.840;2024-03-02T09:17:51;20.60;49.00
21807;DHT22;11065;50.786;7.840;2024-03-02T09:20:23;21.30;48.00
21807;DHT22;11065;50.786;7.840;2024-03-02T09:22:51;21.90;47.10
21807;DHT22;11065;50.786;7.840;2024-03-02T09:25:19;22.60;46.70
21807;DHT22;11065;50.786;7.840;2024-03-02T09:27:47;23.20;46.10
21807;DHT22;11065;50.786;7.840;2024-03-02T09:30:15;23.80;45.70
21807;DHT22;11065;50.786;7.840;2024-03-02T09:32:44;24.40;45.10
21807;DHT22;11065;50.786;7.840;2024-03-02T09:35:16;25.00;44.40
21807;DHT22;11065;50.786;7.840;2024-03-02T09:37:44;25.60;43.30
21807;DHT22;11065;50.786;7.840;2024-03-02T09:40:13;26.30;44.00
21807;DHT22;11065;50.786;7.840;2024-03-02T09:42:43;26.80;43.40
21807;DHT22;11065;50.786;7.840;2024-03-02T09:45:22;27.40;42.50
21807;DHT22;11065;50.786;7.840;2024-03-02T09:47:52;28.00;40.50
21807;DHT22;11065;50.786;7.840;2024-03-02T09:50:20;28.40;41.10
21807;DHT22;11065;50.786;7.840;2024-03-02T09:52:49;28.80;40.40
21807;DHT22;11065;50.786;7.840;2024-03-02T09:55:17;29.20;39.90
21807;DHT22;11065;50.786;7.840;2024-03-02T09:57:46;29.60;39.40
21807;DHT22;11065;50.786;7.840;2024-03-02T10:00:16;29.90;39.10
21807;DHT22;11065;50.786;7.840;2024-03-02T10:02:44;30.20;38.60
21807;DHT22;11065;50.786;7.840;2024-03-02T10:05:25;30.40;37.80
21807;DHT22;11065;50.786;7.840;2024-03-02T10:08:02;30.60;36.30
21807;DHT22;11065;50.786;7.840;2024-03-02T10:10:37;30.90;36.50
21807;DHT22;11065;50.786;7.840;2024-03-02T10:13:07;31.20;36.30
21807;DHT22;11065;50.786;7.840;2024-03-02T10:15:38;31.50;35.90
21807;DHT22;11065;50.786;7.840;2024-03-02T10:18:09;31.70;35.90
21807;DHT22;11065;50.786;7.840;2024-03-02T10:20:40;31.90;35.60
21807;DHT22;11065;50.786;7.840;2024-03-02T10:23:10;32.10;35.50
21807;DHT22;11065;50.786;7.840;2024-03-02T10:25:39;32.40;35.30
21807;DHT22;11065;50.786;7.840;2024-03-02T10:28:20;32.60;35.70
21807;DHT22;11065;50.786;7.840;2024-03-02T10:30:48;32.80;34.50
21807;DHT22;11065;50.786;7.840;2024-03-02T10:33:18;32.90;33.90
21807;DHT22;11065;50.786;7.840;2024-03-02T10:35:48;33.00;33.20
21807;DHT22;11065;50.786;7.840;2024-03-02T10:38:17;33.00;33.20
21807;DHT22;11065;50.786;7.840;2024-03-02T10:40:47;33.10;32.80
21807;DHT22;11065;50.786;7.840;2024-03-02T10:43:15;33.20;32.50
21807;DHT22;11065;50.786;7.840;2024-03-02T10:45:46;33.20;32.30
21807;DHT22;11065;50.786;7.840;2024-03-02T10:48:17;33.30;31.60
21807;DHT22;11065;50.786;7.840;2024-03-02T10:50:46;33.30;30.80
21807;DHT22;11065;50.786;7.840;2024-03-02T10:53:15;33.10;30.80
21807;DHT22;11065;50.786;7.840;2024-03-02T10:55:43;32.90;29.70
21807;DHT22;11065;50.786;7.840;2024-03-02T10:58:12;32.60;29.80
21807;DHT22;11065;50.786;7.840;2024-03-02T11:00:41;32.30;30.00
21807;DHT22;11065;50.786;7.840;2024-03-02T11:03:13;32.10;30.00
21807;DHT22;11065;50.786;7.840;2024-03-02T11:05:44;31.80;29.50
21807;DHT22;11065;50.786;7.840;2024-03-02T11:08:16;31.60;29.90
21807;DHT22;11065;50.786;7.840;2024-03-02T11:10:50;31.50;29.70
21807;DHT22;11065;50.786;7.840;2024-03-02T11:13:22;31.30;29.30
21807;DHT22;11065;50.786;7.840;2024-03-02T11:15:54;31.20;29.40
21807;DHT22;11065;50.786;7.840;2024-03-02T11:18:23;31.10;28.80
21807;DHT22;11065;50.786;7.840;2024-03-02T11:20:52;31.00;29.40
21807;DHT22;11065;50.786;7.840;2024-03-02T11:23:31;30.90;29.80
21807;DHT22;11065;50.786;7.840;2024-03-02T11:26:18;30.90;29.60
21807;DHT22;11065;50.786;7.840;2024-03-02T11:28:46;30.80;28.80
21807;DHT22;11065;50.786;7.840;2024-03-02T11:31:15;30.80;29.90
21807;DHT22;11065;50.786;7.840;2024-03-02T11:33:43;30.80;30.00
21807;DHT22;11065;50.786;7.840;2024-03-02T11:36:11;30.70;29.40
21807;DHT22;11065;50.786;7.840;2024-03-02T11:38:43;30.50;28.90
21807;DHT22;11065;50.786;7.840;2024-03-02T11:41:12;30.20;28.60
21807;DHT22;11065;50.786;7.840;2024-03-02T11:43:42;29.90;28.40
21807;DHT22;11065;50.786;7.840;2024-03-02T11:46:11;29.30;28.60
21807;DHT22;11065;50.786;7.840;2024-03-02T11:48:40;28.80;28.80
21807;DHT22;11065;50.786;7.840;2024-03-02T11:51:08;28.30;28.80
21807;DHT22;11065;50.786;7.840;2024-03-02T11:53:40;27.80;28.50
21807;DHT22;11065;50.786;7.840;2024-03-02T11:56:09;27.20;28.50
21807;DHT22;11065;50.786;7.840;2024-03-02T11:58:39;26.60;29.10
21807;DHT22;11065;50.786;7.840;2024-03-02T12:01:10;26.00;28.70
21807;DHT22;11065;50.786;7.840;2024-03-02T12:03:39;25.40;28.80
21807;DHT22;11065;50.786;7.840;2024-03-02T12:06:07;24.80;29.10
21807;DHT22;11065;50.786;7.840;2024-03-02T12:08:36;24.30;29.50
21807;DHT22;11065;50.786;7.840;2024-03-02T12:11:06;23.90;29.80
21807;DHT22;11065;50.786;7.840;2024-03-02T12:13:34;23.50;29.90
21807;DHT22;11065;50.786;7.840;2024-03-02T12:16:02;23.20;30.20
21807;DHT22;11065;50.786;7.840;2024-03-02T12:18:30;23.00;30.40
21807;DHT22;11065;50.786;7.840;2024-03-02T12:20:58;22.70;30.40
21807;DHT22;11065;50.786;7.840;2024-03-02T12:23:26;22.50;30.70
21807;DHT22;11065;50.786;7.840;2024-03-02T12:25:55;22.30;31.10
21807;DHT22;11065;50.786;7.840;2024-03-02T12:28:24;22.20;31.40
21807;DHT22;11065;50.786;7.840;2024-03-02T12:30:53;22.10;31.40
21807;DHT22;11065;50.786;7.840;2024-03-02T12:33:21;22.00;31.50
21807;DHT22;11065;50.786;7.840;2024-03-02T12:35:50;21.90;31.80
21807;DHT22;11065;50.786;7.840;2024-03-02T12:38:18;21.90;32.10
21807;DHT22;11065;50.786;7.840;2024-03-02T12:40:48;21.90;32.20
21807;DHT22;11065;50.786;7.840;2024-03-02T12:43:16;22.00;32.30
21807;DHT22;11065;50.786;7.840;2024-03-02T12:45:45;22.10;32.30
21807;DHT22;11065;50.786;7.840;2024-03-02T12:48:13;22.10;32.20
21807;DHT22;11065;50.786;7.840;2024-03-02T12:50:42;22.20;32.40
21807;DHT22;11065;50.786;7.840;2024-03-02T12:53:14;22.40;32.80
21807;DHT22;11065;50.786;7.840;2024-03-02T12:55:43;22.80;33.30
21807;DHT22;11065;50.786;7.840;2024-03-02T12:58:17;23.10;32.90
21807;DHT22;11065;50.786;7.840;2024-03-02T13:00:46;23.50;33.00
21807;DHT22;11065;50.786;7.840;2024-03-02T13:03:15;24.00;33.00
21807;DHT22;11065;50.786;7.840;2024-03-02T13:05:48;24.30;32.70
21807;DHT22;11065;50.786;7.840;2024-03-02T13:08:17;24.80;32.60
21807;DHT22;11065;50.786;7.840;2024-03-02T13:10:45;25.10;32.00
21807;DHT22;11065;50.786;7.840;2024-03-02T13:13:13;25.30;32.00
21807;DHT22;11065;50.786;7.840;2024-03-02T13:15:42;25.60;32.00
21807;DHT22;11065;50.786;7.840;2024-03-02T13:18:11;25.90;32.00
21807;DHT22;11065;50.786;7.840;2024-03-02T13:20:40;26.10;31.40
21807;DHT22;11065;50.786;7.840;2024-03-02T13:23:08;26.20;31.00
21807;DHT22;11065;50.786;7.840;2024-03-02T13:25:36;26.10;30.20
21807;DHT22;11065;50.786;7.840;2024-03-02T13:28:05;25.90;29.90
21807;DHT22;11065;50.786;7.840;2024-03-02T13:30:33;25.60;29.90
21807;DHT22;11065;50.786;7.840;2024-03-02T13:33:01;25.40;30.10
21807;DHT22;11065;50.786;7.840;2024-03-02T13:35:31;25.30;30.20
21807;DHT22;11065;50.786;7.840;2024-03-02T13:37:59;25.10;30.20
21807;DHT22;11065;50.786;7.840;2024-03-02T13:40:27;25.00;30.20
21807;DHT22;11065;50.786;7.840;2024-03-02T13:42:55;24.90;30.50
21807;DHT22;11065;50.786;7.840;2024-03-02T13:45:23;24.80;30.50
21807;DHT22;11065;50.786;7.840;2024-03-02T13:47:52;24.70;30.40
21807;DHT22;11065;50.786;7.840;2024-03-02T13:50:20;24.50;30.00
21807;DHT22;11065;50.786;7.840;2024-03-02T13:52:49;24.30;29.90
21807;DHT22;11065;50.786;7.840;2024-03-02T13:55:17;24.10;30.30
21807;DHT22;11065;50.786;7.840;2024-03-02T13:57:46;24.10;30.70
21807;DHT22;11065;50.786;7.840;2024-03-02T14:00:16;24.20;30.60
21807;DHT22;11065;50.786;7.840;2024-03-02T14:02:45;24.20;30.60
21807;DHT22;11065;50.786;7.840;2024-03-02T14:05:13;24.20;30.40
21807;DHT22;11065;50.786;7.840;2024-03-02T14:07:41;24.10;30.40
21807;DHT22;11065;50.786;7.840;2024-03-02T14:10:11;24.00;30.40
21807;DHT22;11065;50.786;7.840;2024-03-02T14:12:41;23.90;30.30
21807;DHT22;11065;50.786;7.840;2024-03-02T14:15:09;23.70;30.20
21807;DHT22;11065;50.786;7.840;2024-03-02T14:17:37;23.50;30.20
21807;DHT22;11065;50.786;7.840;2024-03-02T14:20:06;23.30;30.30
21807;DHT22;11065;50.786;7.840;2024-03-02T14:22:36;23.10;30.50
21807;DHT22;11065;50.786;7.840;2024-03-02T14:25:05;23.00;30.70
21807;DHT22;11065;50.786;7.840;2024-03-02T14:27:34;22.90;30.90
21807;DHT22;11065;50.786;7.840;2024-03-02T14:30:23;22.80;31.10
21807;DHT22;11065;50.786;7.840;2024-03-02T14:32:51;22.90;31.20
21807;DHT22;11065;50.786;7.840;2024-03-02T14:35:19;22.80;31.00
21807;DHT22;11065;50.786;7.840;2024-03-02T14:37:49;22.70;30.90
21807;DHT22;11065;50.786;7.840;2024-03-02T14:40:17;22.60;30.90
21807;DHT22;11065;50.786;7.840;2024-03-02T14:42:46;22.50;31.10
21807;DHT22;11065;50.786;7.840;2024-03-02T14:45:15;22.40;31.10
21807;DHT22;11065;50.786;7.840;2024-03-02T14:47:43;22.40;31.30
21807;DHT22;11065;50.786;7.840;2024-03-02T14:50:11;22.40;31.30
21807;DHT22;11065;50.786;7.840;2024-03-02T14:52:39;22.50;31.30
21807;DHT22;11065;50.786;7.840;2024-03-02T14:55:11;22.40;31.20
21807;DHT22;11065;50.786;7.840;2024-03-02T14:57:40;22.40;31.20
21807;DHT22;11065;50.786;7.840;2024-03-02T15:00:10;22.50;31.40
21807;DHT22;11065;50.786;7.840;2024-03-02T15:02:38;22.50;31.50
21807;DHT22;11065;50.786;7.840;2024-03-02T15:05:07;22.60;31.60
21807;DHT22;11065;50.786;7.840;2024-03-02T15:07:35;22.70;31.60
21807;DHT22;11065;50.786;7.840;2024-03-02T15:10:06;22.80;31.50
21807;DHT22;11065;50.786;7.840;2024-03-02T15:12:35;22.90;31.40
21807;DHT22;11065;50.786;7.840;2024-03-02T15:15:04;23.10;31.50
21807;DHT22;11065;50.786;7.840;2024-03-02T15:17:34;23.20;31.10
21807;DHT22;11065;50.786;7.840;2024-03-02T15:20:03;23.20;30.50
21807;DHT22;11065;50.786;7.840;2024-03-02T15:22:34;23.20;30.30
21807;DHT22;11065;50.786;7.840;2024-03-02T15:25:02;23.10;30.40
21807;DHT22;11065;50.786;7.840;2024-03-02T15:27:30;22.90;30.40
21807;DHT22;11065;50.786;7.840;2024-03-02T15:29:58;22.80;30.50
21807;DHT22;11065;50.786;7.840;2024-03-02T15:32:27;22.80;30.60
21807;DHT22;11065;50.786;7.840;2024-03-02T15:34:56;22.70;30.60
21807;DHT22;11065;50.786;7.840;2024-03-02T15:37:24;22.70;30.70
21807;DHT22;11065;50.786;7.840;2024-03-02T15:39:52;22.70;30.70
21807;DHT22;11065;50.786;7.840;2024-03-02T15:42:20;22.70;30.70
21807;DHT22;11065;50.786;7.840;2024-03-02T15:44:50;22.60;30.70